sensor_id;sensor_type;location;lat;lon;timestamp;pressure;altitude;pressure_sealevel;temperature;humidity
45071;BME280;30836;48.906;9.140;2023-03-12T00:00:04;982.77;;;9.34;35.33
45071;BME280;30836;48.906;9.140;2023-03-12T00:01:09;982.79;;;9.31;35.31
45071;BME280;30836;48.906;9.140;2023-03-12T00:02:14;982.75;;;9.28;35.36
45071;BME280;30836;48.906;9.140;2023-03-12T00:03:15;982.77;;;9.25;35.32
45071;BME280;30836;48.906;9.140;2023-03-12T00:04:15;982.75;;;9.23;35.32
45071;BME280;30836;48.906;9.140;2023-03-12T00:05:16;982.77;;;9.19;35.39
45071;BME280;30836;48.906;9.140;2023-03-12T00:06:17;982.79;;;9.16;35.47
45071;BME280;30836;48.906;9.140;2023-03-12T00:07:18;982.77;;;9.12;35.79
45071;BME280;30836;48.906;9.140;2023-03-12T00:08:18;982.79;;;9.08;35.92
45071;BME280;30836;48.906;9.140;2023-03-12T00:09:18;982.81;;;9.05;35.94
45071;BME280;30836;48.906;9.140;2023-03-12T00:10:19;982.83;;;9.02;36.19
45071;BME280;30836;48.906;9.140;2023-03-12T00:11:20;982.79;;;9.00;36.29
45071;BME280;30836;48.906;9.140;2023-03-12T00:12:20;982.83;;;8.98;36.50
45071;BME280;30836;48.906;9.140;2023-03-12T00:13:21;982.85;;;8.96;36.49
45071;BME280;30836;48.906;9.140;2023-03-12T00:14:21;982.87;;;8.95;36.61
45071;BME280;30836;48.906;9.140;2023-03-12T00:15:22;982.89;;;8.93;36.66
45071;BME280;30836;48.906;9.140;2023-03-12T00:16:23;982.89;;;8.92;36.63
45071;BME280;30836;48.906;9.140;2023-03-12T00:17:24;982.89;;;8.90;36.61
45071;BME280;30836;48.906;9.140;2023-03-12T00:18:24;982.87;;;8.87;36.61
45071;BME280;30836;48.906;9.140;2023-03-12T00:19:25;982.85;;;8.84;36.65
45071;BME280;30836;48.906;9.140;2023-03-12T00:20:25;982.85;;;8.80;36.67
45071;BME280;30836;48.906;9.140;2023-03-12T00:21:26;982.87;;;8.76;36.75
45071;BME280;30836;48.906;9.140;2023-03-12T00:22:27;982.85;;;8.73;36.85
45071;BME280;30836;48.906;9.140;2023-03-12T00:23:27;982.83;;;8.72;36.91
45071;BME280;30836;48.906;9.140;2023-03-12T00:24:28;982.83;;;8.71;37.01
45071;BME280;30836;48.906;9.140;2023-03-12T00:25:28;982.85;;;8.69;37.00
45071;BME280;30836;48.906;9.140;2023-03-12T00:26:29;982.85;;;8.66;37.13
45071;BME280;30836;48.906;9.140;2023-03-12T00:27:30;982.87;;;8.63;37.24
45071;BME280;30836;48.906;9.140;2023-03-12T00:28:31;982.85;;;8.62;37.21
45071;BME280;30836;48.906;9.140;2023-03-12T00:29:31;982.85;;;8.63;37.18
45071;BME280;30836;48.906;9.140;2023-03-12T00:30:32;982.85;;;8.64;37.25
45071;BME280;30836;48.906;9.140;2023-03-12T00:31:32;982.83;;;8.65;37.39
45071;BME280;30836;48.906;9.140;2023-03-12T00:32:33;982.83;;;8.67;37.54
45071;BME280;30836;48.906;9.140;2023-03-12T00:33:34;982.83;;;8.68;37.58
45071;BME280;30836;48.906;9.140;2023-03-12T00:34:35;982.85;;;8.68;37.67
45071;BME280;30836;48.906;9.140;2023-03-12T00:35:38;982.85;;;8.68;37.78
45071;BME280;30836;48.906;9.140;2023-03-12T00:36:38;982.83;;;8.68;37.81
45071;BME280;30836;48.906;9.140;2023-03-12T00:37:39;982.83;;;8.69;37.80
45071;BME280;30836;48.906;9.140;2023-03-12T00:38:39;982.79;;;8.71;37.76
45071;BME280;30836;48.906;9.140;2023-03-12T00:39:39;982.81;;;8.72;37.83
45071;BME280;30836;48.906;9.140;2023-03-12T00:40:40;982.81;;;8.73;37.88
45071;BME280;30836;48.906;9.140;2023-03-12T00:41:40;982.81;;;8.73;37.84
45071;BME280;30836;48.906;9.140;2023-03-12T00:42:41;982.81;;;8.73;37.92
45071;BME280;30836;48.906;9.140;2023-03-12T00:43:41;982.83;;;8.73;37.92
45071;BME280;30836;48.906;9.140;2023-03-12T00:44:42;982.77;;;8.74;37.92
45071;BME280;30836;48.906;9.140;2023-03-12T00:45:42;982.75;;;8.73;38.00
45071;BME280;30836;48.906;9.140;2023-03-12T00:46:43;982.75;;;8.72;38.03
45071;BME280;30836;48.906;9.140;2023-03-12T00:47:44;982.73;;;8.73;38.02
45071;BME280;30836;48.906;9.140;2023-03-12T00:48:45;982.73;;;8.73;38.01
45071;BME280;30836;48.906;9.140;2023-03-12T00:49:45;982.75;;;8.73;38.02
45071;BME280;30836;48.906;9.140;2023-03-12T00:50:46;982.73;;;8.72;38.01
45071;BME280;30836;48.906;9.140;2023-03-12T00:51:46;982.75;;;8.71;38.06
45071;BME280;30836;48.906;9.140;2023-03-12T00:52:47;982.77;;;8.70;38.04
45071;BME280;30836;48.906;9.140;2023-03-12T00:53:47;982.75;;;8.70;38.03
45071;BME280;30836;48.906;9.140;2023-03-12T00:54:47;982.75;;;8.70;38.03
45071;BME280;30836;48.906;9.140;2023-03-12T00:55:48;982.75;;;8.70;38.00
45071;BME280;30836;48.906;9.140;2023-03-12T00:56:49;982.77;;;8.70;38.02
45071;BME280;30836;48.906;9.140;2023-03-12T00:57:49;982.77;;;8.68;38.06
45071;BME280;30836;48.906;9.140;2023-03-12T00:58:49;982.77;;;8.68;38.02
45071;BME280;30836;48.906;9.140;2023-03-12T00:59:50;982.77;;;8.68;37.98
45071;BME280;30836;48.906;9.140;2023-03-12T01:00:50;982.75;;;8.68;37.93
45071;BME280;30836;48.906;9.140;2023-03-12T01:01:51;982.75;;;8.68;37.92
45071;BME280;30836;48.906;9.140;2023-03-12T01:02:51;982.77;;;8.69;37.88
45071;BME280;30836;48.906;9.140;2023-03-12T01:03:52;982.73;;;8.69;37.83
45071;BME280;30836;48.906;9.140;2023-03-12T01:04:53;982.73;;;8.70;37.78
45071;BME280;30836;48.906;9.140;2023-03-12T01:05:54;982.71;;;8.69;37.78
45071;BME280;30836;48.906;9.140;2023-03-12T01:06:54;982.71;;;8.70;37.78
45071;BME280;30836;48.906;9.140;2023-03-12T01:07:55;982.73;;;8.71;37.79
45071;BME280;30836;48.906;9.140;2023-03-12T01:08:55;982.73;;;8.72;37.71
45071;BME280;30836;48.906;9.140;2023-03-12T01:09:56;982.75;;;8.73;37.60
45071;BME280;30836;48.906;9.140;2023-03-12T01:10:56;982.75;;;8.72;37.56
45071;BME280;30836;48.906;9.140;2023-03-12T01:11:56;982.73;;;8.71;37.47
45071;BME280;30836;48.906;9.140;2023-03-12T01:12:57;982.73;;;8.70;37.47
45071;BME280;30836;48.906;9.140;2023-03-12T01:13:58;982.73;;;8.69;37.49
45071;BME280;30836;48.906;9.140;2023-03-12T01:14:59;982.73;;;8.68;37.42
45071;BME280;30836;48.906;9.140;2023-03-12T01:16:00;982.73;;;8.67;37.27
45071;BME280;30836;48.906;9.140;2023-03-12T01:17:00;982.73;;;8.64;37.24
45071;BME280;30836;48.906;9.140;2023-03-12T01:18:01;982.73;;;8.61;37.34
45071;BME280;30836;48.906;9.140;2023-03-12T01:19:02;982.73;;;8.59;37.47
45071;BME280;30836;48.906;9.140;2023-03-12T01:20:03;982.75;;;8.59;37.60
45071;BME280;30836;48.906;9.140;2023-03-12T01:21:04;982.75;;;8.59;37.59
45071;BME280;30836;48.906;9.140;2023-03-12T01:22:04;982.77;;;8.61;37.54
45071;BME280;30836;48.906;9.140;2023-03-12T01:23:05;982.77;;;8.63;37.53
45071;BME280;30836;48.906;9.140;2023-03-12T01:24:06;982.75;;;8.62;37.59
45071;BME280;30836;48.906;9.140;2023-03-12T01:25:07;982.75;;;8.62;37.66
45071;BME280;30836;48.906;9.140;2023-03-12T01:26:07;982.73;;;8.62;37.70
45071;BME280;30836;48.906;9.140;2023-03-12T01:27:08;982.73;;;8.62;37.72
45071;BME280;30836;48.906;9.140;2023-03-12T01:28:08;982.75;;;8.62;37.86
45071;BME280;30836;48.906;9.140;2023-03-12T01:29:09;982.71;;;8.61;38.00
45071;BME280;30836;48.906;9.140;2023-03-12T01:30:10;982.73;;;8.60;38.15
45071;BME280;30836;48.906;9.140;2023-03-12T01:31:12;982.75;;;8.60;38.24
45071;BME280;30836;48.906;9.140;2023-03-12T01:32:14;982.77;;;8.66;38.06
45071;BME280;30836;48.906;9.140;2023-03-12T01:33:15;982.79;;;8.76;37.86
45071;BME280;30836;48.906;9.140;2023-03-12T01:34:15;982.79;;;8.86;37.73
45071;BME280;30836;48.906;9.140;2023-03-12T01:35:16;982.79;;;8.95;37.60
45071;BME280;30836;48.906;9.140;2023-03-12T01:36:18;982.81;;;9.03;37.53
45071;BME280;30836;48.906;9.140;2023-03-12T01:37:20;982.81;;;9.11;37.44
45071;BME280;30836;48.906;9.140;2023-03-12T01:38:20;982.81;;;9.17;37.29
45071;BME280;30836;48.906;9.140;2023-03-12T01:39:21;982.79;;;9.22;37.23
45071;BME280;30836;48.906;9.140;2023-03-12T01:40:22;982.83;;;9.27;37.11
45071;BME280;30836;48.906;9.140;2023-03-12T01:41:23;982.81;;;9.31;37.02
45071;BME280;30836;48.906;9.140;2023-03-12T01:42:26;982.81;;;9.34;36.99
45071;BME280;30836;48.906;9.140;2023-03-12T01:43:28;982.81;;;9.37;36.89
45071;BME280;30836;48.906;9.140;2023-03-12T01:46:54;982.83;;;9.38;36.87
45071;BME280;30836;48.906;9.140;2023-03-12T01:47:54;982.81;;;9.38;36.88
45071;BME280;30836;48.906;9.140;2023-03-12T01:50:03;982.77;;;9.39;36.85
45071;BME280;30836;48.906;9.140;2023-03-12T01:51:04;982.75;;;9.38;36.90
45071;BME280;30836;48.906;9.140;2023-03-12T01:52:08;982.75;;;9.39;36.93
45071;BME280;30836;48.906;9.140;2023-03-12T01:53:12;982.77;;;9.41;36.86
45071;BME280;30836;48.906;9.140;2023-03-12T01:54:17;982.77;;;9.42;36.91
45071;BME280;30836;48.906;9.140;2023-03-12T01:55:21;982.77;;;9.44;36.89
45071;BME280;30836;48.906;9.140;2023-03-12T01:56:22;982.75;;;9.46;36.87
45071;BME280;30836;48.906;9.140;2023-03-12T01:58:37;982.77;;;9.52;36.86
45071;BME280;30836;48.906;9.140;2023-03-12T01:59:45;982.79;;;9.54;36.85
45071;BME280;30836;48.906;9.140;2023-03-12T02:00:49;982.79;;;9.55;36.79
45071;BME280;30836;48.906;9.140;2023-03-12T02:01:49;982.79;;;9.57;36.77
45071;BME280;30836;48.906;9.140;2023-03-12T02:02:50;982.79;;;9.57;36.81
45071;BME280;30836;48.906;9.140;2023-03-12T02:03:52;982.77;;;9.59;36.80
45071;BME280;30836;48.906;9.140;2023-03-12T02:05:02;982.77;;;9.62;36.76
45071;BME280;30836;48.906;9.140;2023-03-12T02:06:10;982.71;;;9.65;36.68
45071;BME280;30836;48.906;9.140;2023-03-12T02:07:14;982.75;;;9.67;36.67
45071;BME280;30836;48.906;9.140;2023-03-12T02:08:16;982.73;;;9.70;36.65
45071;BME280;30836;48.906;9.140;2023-03-12T02:09:17;982.73;;;9.71;36.65
45071;BME280;30836;48.906;9.140;2023-03-12T02:10:20;982.71;;;9.72;36.69
45071;BME280;30836;48.906;9.140;2023-03-12T02:11:21;982.71;;;9.74;36.65
45071;BME280;30836;48.906;9.140;2023-03-12T02:12:21;982.73;;;9.75;36.65
45071;BME280;30836;48.906;9.140;2023-03-12T02:13:21;982.71;;;9.76;36.63
45071;BME280;30836;48.906;9.140;2023-03-12T02:14:22;982.69;;;9.77;36.67
45071;BME280;30836;48.906;9.140;2023-03-12T02:15:23;982.69;;;9.77;36.64
45071;BME280;30836;48.906;9.140;2023-03-12T02:16:23;982.69;;;9.79;36.63
45071;BME280;30836;48.906;9.140;2023-03-12T02:17:24;982.71;;;9.81;36.61
45071;BME280;30836;48.906;9.140;2023-03-12T02:18:25;982.67;;;9.83;36.57
45071;BME280;30836;48.906;9.140;2023-03-12T02:21:45;982.65;;;9.90;36.45
45071;BME280;30836;48.906;9.140;2023-03-12T02:22:50;982.69;;;9.93;36.34
45071;BME280;30836;48.906;9.140;2023-03-12T02:26:17;982.67;;;9.99;36.06
45071;BME280;30836;48.906;9.140;2023-03-12T02:26:29;982.67;;;10.00;36.06
45071;BME280;30836;48.906;9.140;2023-03-12T02:27:33;982.71;;;9.99;36.14
45071;BME280;30836;48.906;9.140;2023-03-12T02:28:36;982.69;;;9.94;36.37
45071;BME280;30836;48.906;9.140;2023-03-12T02:28:48;982.69;;;9.79;36.39
45071;BME280;30836;48.906;9.140;2023-03-12T02:29:49;982.67;;;9.79;36.51
45071;BME280;30836;48.906;9.140;2023-03-12T02:30:50;982.67;;;9.76;36.63
45071;BME280;30836;48.906;9.140;2023-03-12T02:31:53;982.63;;;9.70;36.73
45071;BME280;30836;48.906;9.140;2023-03-12T02:32:57;982.63;;;9.65;36.85
45071;BME280;30836;48.906;9.140;2023-03-12T02:34:00;982.63;;;9.64;36.85
45071;BME280;30836;48.906;9.140;2023-03-12T02:35:01;982.67;;;9.67;36.85
45071;BME280;30836;48.906;9.140;2023-03-12T02:36:03;982.67;;;9.72;36.77
45071;BME280;30836;48.906;9.140;2023-03-12T02:37:04;982.67;;;9.77;36.75
45071;BME280;30836;48.906;9.140;2023-03-12T02:38:25;982.69;;;9.81;36.70
45071;BME280;30836;48.906;9.140;2023-03-12T02:39:15;982.69;;;9.84;36.58
45071;BME280;30836;48.906;9.140;2023-03-12T02:40:35;982.69;;;9.84;36.60
45071;BME280;30836;48.906;9.140;2023-03-12T02:41:29;982.67;;;9.82;36.72
45071;BME280;30836;48.906;9.140;2023-03-12T02:42:36;982.65;;;9.77;36.88
45071;BME280;30836;48.906;9.140;2023-03-12T02:43:36;982.65;;;9.75;36.89
45071;BME280;30836;48.906;9.140;2023-03-12T02:44:37;982.65;;;9.74;36.83
45071;BME280;30836;48.906;9.140;2023-03-12T02:45:38;982.65;;;9.73;36.86
45071;BME280;30836;48.906;9.140;2023-03-12T02:46:40;982.63;;;9.73;36.83
45071;BME280;30836;48.906;9.140;2023-03-12T02:47:45;982.61;;;9.75;36.83
45071;BME280;30836;48.906;9.140;2023-03-12T02:48:46;982.61;;;9.77;36.86
45071;BME280;30836;48.906;9.140;2023-03-12T02:49:46;982.61;;;9.76;36.86
45071;BME280;30836;48.906;9.140;2023-03-12T02:50:47;982.63;;;9.73;36.80
45071;BME280;30836;48.906;9.140;2023-03-12T02:51:48;982.63;;;9.73;36.81
45071;BME280;30836;48.906;9.140;2023-03-12T02:52:49;982.65;;;9.74;36.81
45071;BME280;30836;48.906;9.140;2023-03-12T02:53:49;982.63;;;9.76;36.76
45071;BME280;30836;48.906;9.140;2023-03-12T02:54:49;982.63;;;9.78;36.72
45071;BME280;30836;48.906;9.140;2023-03-12T02:55:50;982.61;;;9.79;36.70
45071;BME280;30836;48.906;9.140;2023-03-12T02:56:51;982.63;;;9.79;36.69
45071;BME280;30836;48.906;9.140;2023-03-12T02:57:52;982.63;;;9.78;36.70
45071;BME280;30836;48.906;9.140;2023-03-12T02:58:52;982.63;;;9.78;36.70
45071;BME280;30836;48.906;9.140;2023-03-12T02:59:53;982.61;;;9.79;36.71
45071;BME280;30836;48.906;9.140;2023-03-12T03:00:53;982.63;;;9.81;36.62
45071;BME280;30836;48.906;9.140;2023-03-12T03:01:54;982.63;;;9.82;36.58
45071;BME280;30836;48.906;9.140;2023-03-12T03:02:58;982.61;;;9.78;36.70
45071;BME280;30836;48.906;9.140;2023-03-12T03:03:59;982.63;;;9.68;36.95
45071;BME280;30836;48.906;9.140;2023-03-12T03:05:03;982.63;;;9.67;36.81
45071;BME280;30836;48.906;9.140;2023-03-12T03:06:04;982.61;;;9.69;36.84
45071;BME280;30836;48.906;9.140;2023-03-12T03:07:04;982.61;;;9.72;36.77
45071;BME280;30836;48.906;9.140;2023-03-12T03:08:05;982.59;;;9.75;36.76
45071;BME280;30836;48.906;9.140;2023-03-12T03:09:06;982.61;;;9.78;36.70
45071;BME280;30836;48.906;9.140;2023-03-12T03:10:08;982.61;;;9.80;36.65
45071;BME280;30836;48.906;9.140;2023-03-12T03:11:09;982.59;;;9.83;36.60
45071;BME280;30836;48.906;9.140;2023-03-12T03:12:10;982.55;;;9.86;36.53
45071;BME280;30836;48.906;9.140;2023-03-12T03:13:10;982.51;;;9.88;36.49
45071;BME280;30836;48.906;9.140;2023-03-12T03:14:11;982.50;;;9.90;36.41
45071;BME280;30836;48.906;9.140;2023-03-12T03:15:12;982.48;;;9.90;36.41
45071;BME280;30836;48.906;9.140;2023-03-12T03:16:12;982.50;;;9.89;36.44
45071;BME280;30836;48.906;9.140;2023-03-12T03:17:13;982.48;;;9.87;36.47
45071;BME280;30836;48.906;9.140;2023-03-12T03:18:13;982.46;;;9.86;36.55
45071;BME280;30836;48.906;9.140;2023-03-12T03:19:14;982.44;;;9.84;36.66
45071;BME280;30836;48.906;9.140;2023-03-12T03:20:14;982.44;;;9.84;36.62
45071;BME280;30836;48.906;9.140;2023-03-12T03:21:15;982.40;;;9.85;36.60
45071;BME280;30836;48.906;9.140;2023-03-12T03:22:16;982.38;;;9.87;36.56
45071;BME280;30836;48.906;9.140;2023-03-12T03:23:17;982.34;;;9.87;36.64
45071;BME280;30836;48.906;9.140;2023-03-12T03:24:17;982.34;;;9.82;36.84
45071;BME280;30836;48.906;9.140;2023-03-12T03:25:18;982.32;;;9.79;36.83
45071;BME280;30836;48.906;9.140;2023-03-12T03:26:19;982.32;;;9.75;36.98
45071;BME280;30836;48.906;9.140;2023-03-12T03:27:21;982.32;;;9.69;37.09
45071;BME280;30836;48.906;9.140;2023-03-12T03:28:22;982.36;;;9.68;37.06
45071;BME280;30836;48.906;9.140;2023-03-12T03:29:24;982.34;;;9.68;37.04
45071;BME280;30836;48.906;9.140;2023-03-12T03:30:24;982.36;;;9.69;37.12
45071;BME280;30836;48.906;9.140;2023-03-12T03:31:25;982.34;;;9.70;37.08
45071;BME280;30836;48.906;9.140;2023-03-12T03:32:26;982.32;;;9.73;37.06
45071;BME280;30836;48.906;9.140;2023-03-12T03:33:27;982.34;;;9.76;36.99
45071;BME280;30836;48.906;9.140;2023-03-12T03:34:28;982.34;;;9.79;36.92
45071;BME280;30836;48.906;9.140;2023-03-12T03:35:28;982.40;;;9.81;36.87
45071;BME280;30836;48.906;9.140;2023-03-12T03:36:29;982.42;;;9.82;36.85
45071;BME280;30836;48.906;9.140;2023-03-12T03:37:29;982.42;;;9.80;36.93
45071;BME280;30836;48.906;9.140;2023-03-12T03:38:31;982.44;;;9.65;37.13
45071;BME280;30836;48.906;9.140;2023-03-12T03:39:32;982.42;;;9.49;37.44
45071;BME280;30836;48.906;9.140;2023-03-12T03:40:32;982.40;;;9.49;37.33
45071;BME280;30836;48.906;9.140;2023-03-12T03:41:33;982.42;;;9.53;37.27
45071;BME280;30836;48.906;9.140;2023-03-12T03:42:33;982.38;;;9.57;37.22
45071;BME280;30836;48.906;9.140;2023-03-12T03:43:34;982.40;;;9.61;37.16
45071;BME280;30836;48.906;9.140;2023-03-12T03:44:34;982.40;;;9.65;37.19
45071;BME280;30836;48.906;9.140;2023-03-12T03:45:35;982.44;;;9.69;37.26
45071;BME280;30836;48.906;9.140;2023-03-12T03:46:35;982.40;;;9.73;37.20
45071;BME280;30836;48.906;9.140;2023-03-12T03:47:36;982.42;;;9.77;37.06
45071;BME280;30836;48.906;9.140;2023-03-12T03:48:36;982.40;;;9.79;37.00
45071;BME280;30836;48.906;9.140;2023-03-12T03:49:37;982.42;;;9.82;36.95
45071;BME280;30836;48.906;9.140;2023-03-12T03:50:37;982.40;;;9.85;36.90
45071;BME280;30836;48.906;9.140;2023-03-12T03:51:38;982.40;;;9.89;36.95
45071;BME280;30836;48.906;9.140;2023-03-12T03:52:39;982.40;;;9.91;36.90
45071;BME280;30836;48.906;9.140;2023-03-12T03:53:39;982.40;;;9.95;36.87
45071;BME280;30836;48.906;9.140;2023-03-12T03:54:39;982.42;;;9.97;36.86
45071;BME280;30836;48.906;9.140;2023-03-12T03:55:40;982.42;;;9.96;36.99
45071;BME280;30836;48.906;9.140;2023-03-12T03:56:40;982.36;;;9.92;37.18
45071;BME280;30836;48.906;9.140;2023-03-12T03:57:41;982.34;;;9.88;37.19
45071;BME280;30836;48.906;9.140;2023-03-12T03:58:41;982.34;;;9.84;37.18
45071;BME280;30836;48.906;9.140;2023-03-12T03:59:42;982.26;;;9.81;37.28
45071;BME280;30836;48.906;9.140;2023-03-12T04:00:43;982.28;;;9.80;37.34
45071;BME280;30836;48.906;9.140;2023-03-12T04:01:45;982.24;;;9.80;37.24
45071;BME280;30836;48.906;9.140;2023-03-12T04:02:45;982.22;;;9.78;37.41
45071;BME280;30836;48.906;9.140;2023-03-12T04:03:46;982.20;;;9.77;37.45
45071;BME280;30836;48.906;9.140;2023-03-12T04:04:46;982.20;;;9.80;37.42
45071;BME280;30836;48.906;9.140;2023-03-12T04:05:52;982.16;;;9.85;37.32
45071;BME280;30836;48.906;9.140;2023-03-12T04:06:59;982.16;;;9.90;37.24
45071;BME280;30836;48.906;9.140;2023-03-12T04:07:59;982.16;;;9.93;37.30
45071;BME280;30836;48.906;9.140;2023-03-12T04:08:59;982.20;;;9.89;37.50
45071;BME280;30836;48.906;9.140;2023-03-12T04:10:00;982.16;;;9.81;37.67
45071;BME280;30836;48.906;9.140;2023-03-12T04:12:10;982.18;;;9.66;37.91
45071;BME280;30836;48.906;9.140;2023-03-12T04:13:11;982.18;;;9.58;37.94
45071;BME280;30836;48.906;9.140;2023-03-12T04:14:11;982.22;;;9.51;37.99
45071;BME280;30836;48.906;9.140;2023-03-12T04:15:11;982.24;;;9.47;38.08
45071;BME280;30836;48.906;9.140;2023-03-12T04:16:12;982.24;;;9.42;38.23
45071;BME280;30836;48.906;9.140;2023-03-12T04:17:13;982.24;;;9.38;38.34
45071;BME280;30836;48.906;9.140;2023-03-12T04:18:14;982.26;;;9.35;38.29
45071;BME280;30836;48.906;9.140;2023-03-12T04:19:14;982.28;;;9.32;38.32
45071;BME280;30836;48.906;9.140;2023-03-12T04:20:15;982.30;;;9.29;38.40
45071;BME280;30836;48.906;9.140;2023-03-12T04:21:15;982.32;;;9.28;38.40
45071;BME280;30836;48.906;9.140;2023-03-12T04:22:16;982.32;;;9.29;38.40
45071;BME280;30836;48.906;9.140;2023-03-12T04:23:16;982.30;;;9.30;38.47
45071;BME280;30836;48.906;9.140;2023-03-12T04:24:17;982.28;;;9.30;38.54
45071;BME280;30836;48.906;9.140;2023-03-12T04:25:17;982.28;;;9.30;38.62
45071;BME280;30836;48.906;9.140;2023-03-12T04:26:18;982.28;;;9.30;38.60
45071;BME280;30836;48.906;9.140;2023-03-12T04:27:18;982.28;;;9.31;38.56
45071;BME280;30836;48.906;9.140;2023-03-12T04:28:18;982.26;;;9.33;38.57
45071;BME280;30836;48.906;9.140;2023-03-12T04:29:19;982.26;;;9.34;38.70
45071;BME280;30836;48.906;9.140;2023-03-12T04:30:19;982.28;;;9.34;38.70
45071;BME280;30836;48.906;9.140;2023-03-12T04:31:20;982.32;;;9.37;38.69
45071;BME280;30836;48.906;9.140;2023-03-12T04:32:20;982.38;;;9.40;38.62
45071;BME280;30836;48.906;9.140;2023-03-12T04:33:21;982.36;;;9.42;38.53
45071;BME280;30836;48.906;9.140;2023-03-12T04:34:21;982.36;;;9.44;38.50
45071;BME280;30836;48.906;9.140;2023-03-12T04:35:22;982.36;;;9.45;38.51
45071;BME280;30836;48.906;9.140;2023-03-12T04:36:22;982.36;;;9.46;38.52
45071;BME280;30836;48.906;9.140;2023-03-12T04:37:23;982.34;;;9.47;38.47
45071;BME280;30836;48.906;9.140;2023-03-12T04:38:23;982.36;;;9.49;38.42
45071;BME280;30836;48.906;9.140;2023-03-12T04:39:25;982.34;;;9.51;38.44
45071;BME280;30836;48.906;9.140;2023-03-12T04:40:26;982.30;;;9.53;38.49
45071;BME280;30836;48.906;9.140;2023-03-12T04:41:27;982.30;;;9.54;38.52
45071;BME280;30836;48.906;9.140;2023-03-12T04:41:37;982.32;;;9.52;38.53
45071;BME280;30836;48.906;9.140;2023-03-12T04:42:38;982.34;;;9.55;38.49
45071;BME280;30836;48.906;9.140;2023-03-12T04:43:38;982.32;;;9.57;38.52
45071;BME280;30836;48.906;9.140;2023-03-12T04:44:39;982.34;;;9.57;38.56
45071;BME280;30836;48.906;9.140;2023-03-12T04:45:40;982.30;;;9.55;38.67
45071;BME280;30836;48.906;9.140;2023-03-12T04:46:40;982.30;;;9.52;38.78
45071;BME280;30836;48.906;9.140;2023-03-12T04:47:41;982.30;;;9.51;38.81
45071;BME280;30836;48.906;9.140;2023-03-12T04:48:42;982.30;;;9.51;38.78
45071;BME280;30836;48.906;9.140;2023-03-12T04:49:42;982.30;;;9.53;38.71
45071;BME280;30836;48.906;9.140;2023-03-12T04:50:42;982.30;;;9.52;38.66
45071;BME280;30836;48.906;9.140;2023-03-12T04:51:43;982.30;;;9.51;38.74
45071;BME280;30836;48.906;9.140;2023-03-12T04:52:43;982.30;;;9.52;38.78
45071;BME280;30836;48.906;9.140;2023-03-12T04:53:44;982.32;;;9.55;38.62
45071;BME280;30836;48.906;9.140;2023-03-12T04:54:44;982.28;;;9.56;38.60
45071;BME280;30836;48.906;9.140;2023-03-12T04:55:45;982.24;;;9.56;38.63
45071;BME280;30836;48.906;9.140;2023-03-12T04:56:46;982.24;;;9.55;38.63
45071;BME280;30836;48.906;9.140;2023-03-12T04:57:47;982.24;;;9.57;38.59
45071;BME280;30836;48.906;9.140;2023-03-12T04:58:47;982.24;;;9.58;38.63
45071;BME280;30836;48.906;9.140;2023-03-12T04:59:47;982.24;;;9.58;38.61
45071;BME280;30836;48.906;9.140;2023-03-12T05:00:48;982.24;;;9.58;38.60
45071;BME280;30836;48.906;9.140;2023-03-12T05:01:49;982.28;;;9.59;38.63
45071;BME280;30836;48.906;9.140;2023-03-12T05:02:49;982.28;;;9.61;38.63
45071;BME280;30836;48.906;9.140;2023-03-12T05:03:50;982.28;;;9.64;38.53
45071;BME280;30836;48.906;9.140;2023-03-12T05:04:51;982.28;;;9.67;38.50
45071;BME280;30836;48.906;9.140;2023-03-12T05:05:55;982.32;;;9.70;38.51
45071;BME280;30836;48.906;9.140;2023-03-12T05:06:55;982.32;;;9.77;38.30
45071;BME280;30836;48.906;9.140;2023-03-12T05:07:55;982.30;;;9.83;38.18
45071;BME280;30836;48.906;9.140;2023-03-12T05:08:56;982.32;;;9.85;38.13
45071;BME280;30836;48.906;9.140;2023-03-12T05:09:56;982.30;;;9.84;38.26
45071;BME280;30836;48.906;9.140;2023-03-12T05:10:57;982.32;;;9.84;38.28
45071;BME280;30836;48.906;9.140;2023-03-12T05:11:57;982.30;;;9.84;38.30
45071;BME280;30836;48.906;9.140;2023-03-12T05:12:58;982.30;;;9.84;38.27
45071;BME280;30836;48.906;9.140;2023-03-12T05:13:58;982.26;;;9.84;38.35
45071;BME280;30836;48.906;9.140;2023-03-12T05:14:59;982.26;;;9.85;38.38
45071;BME280;30836;48.906;9.140;2023-03-12T05:15:59;982.24;;;9.88;38.37
45071;BME280;30836;48.906;9.140;2023-03-12T05:17:00;982.28;;;9.92;38.31
45071;BME280;30836;48.906;9.140;2023-03-12T05:18:00;982.28;;;9.96;38.29
45071;BME280;30836;48.906;9.140;2023-03-12T05:19:00;982.26;;;9.98;38.29
45071;BME280;30836;48.906;9.140;2023-03-12T05:20:01;982.26;;;10.00;38.21
45071;BME280;30836;48.906;9.140;2023-03-12T05:22:06;982.26;;;9.99;38.19
45071;BME280;30836;48.906;9.140;2023-03-12T05:23:07;982.28;;;9.98;38.16
45071;BME280;30836;48.906;9.140;2023-03-12T05:24:08;982.22;;;9.95;38.24
45071;BME280;30836;48.906;9.140;2023-03-12T05:25:09;982.24;;;9.93;38.27
45071;BME280;30836;48.906;9.140;2023-03-12T05:27:17;982.24;;;9.90;38.38
45071;BME280;30836;48.906;9.140;2023-03-12T05:28:18;982.28;;;9.93;38.29
45071;BME280;30836;48.906;9.140;2023-03-12T05:29:18;982.28;;;9.95;38.25
45071;BME280;30836;48.906;9.140;2023-03-12T05:30:19;982.26;;;9.96;38.20
45071;BME280;30836;48.906;9.140;2023-03-12T05:31:19;982.26;;;9.96;38.25
45071;BME280;30836;48.906;9.140;2023-03-12T05:32:21;982.26;;;9.97;38.24
45071;BME280;30836;48.906;9.140;2023-03-12T05:33:21;982.26;;;9.99;38.15
45071;BME280;30836;48.906;9.140;2023-03-12T05:34:21;982.28;;;9.99;38.11
45071;BME280;30836;48.906;9.140;2023-03-12T05:35:22;982.26;;;9.98;38.13
45071;BME280;30836;48.906;9.140;2023-03-12T05:36:22;982.26;;;9.98;38.19
45071;BME280;30836;48.906;9.140;2023-03-12T05:37:23;982.26;;;9.99;38.22
45071;BME280;30836;48.906;9.140;2023-03-12T05:38:23;982.28;;;10.01;38.25
45071;BME280;30836;48.906;9.140;2023-03-12T05:39:24;982.28;;;10.03;38.24
45071;BME280;30836;48.906;9.140;2023-03-12T05:40:27;982.30;;;10.05;38.22
45071;BME280;30836;48.906;9.140;2023-03-12T05:41:28;982.30;;;10.06;38.24
45071;BME280;30836;48.906;9.140;2023-03-12T05:42:28;982.30;;;10.06;38.28
45071;BME280;30836;48.906;9.140;2023-03-12T05:43:29;982.30;;;10.04;38.38
45071;BME280;30836;48.906;9.140;2023-03-12T05:44:29;982.32;;;10.00;38.43
45071;BME280;30836;48.906;9.140;2023-03-12T05:45:31;982.30;;;10.02;38.34
45071;BME280;30836;48.906;9.140;2023-03-12T05:46:32;982.34;;;10.06;38.26